world map with SCL marked

SCL - Airport

This information may not be accurate or current and is not valid for navigation or flight planning. No warranty of fitness for any purpose is made or implied.

flag of Metropolitana de Santiagoflag of Chile

Donate via PayPal

Additional information is available on the NEW Great Circle Mapper

Location
City:  Santiago, Metropolitana de Santiago, Chile
Near (Alt.):Santiago de Chile
Name:Arturo Merino Benítez International (Pudahuel International)
ICAO / IATA:SCEL / SCL

Details
Type:Airport (Aerodrome, Airfield)
Use:Public/Civil
Latitude:33°23'39"S (-33.394166)
Longitude:70°47'37"W (-70.793610)
Elevation:1555 ft (474 m)
Runways:2
Longest:12467 × 148 ft (3800 × 45 m)

Time
Timezone:UTC+30:08 (DST+33:08)
Local Time:

Weather
METAR:SCEL  202000Z 30004KT 240V350 CAVOK 19/05 Q1020 NOSIG
TAF:SCEL  201552Z 2018/2118 19004KT CAVOK TX20/2018Z TN02/2110Z BECMG 2102/2104 VRB02KT 7000 NSC TEMPO 210530 SCSCYZYX FTCH15 SCSC 201800 TAF SCBA 201628Z 2018/2118 30025G35KT 9999 BKN030 BKN200 TX08/2018Z TN04/2110Z PROB30 TEMPO 2100/2106 8000 -SHRA BKN040 BECMG 2106/2108 30030G50KT BECMG 2112/2114 5000 RA OVC020

Related Locations
Nearby:
Farthest:AKA: 12381 mi / 19925 km
Ankang, 61, CN

Find:

   beyond  
but within

Other Information
Maps:
Links:
Sources:

  

Airport Diagram

Airport diagram for SCL

Airport diagram (OBSOLETE) from NGA

 


Great Circle Mapper   Great Circle Mapper
Great Circle Mapper FAQ   Great Circle Mapper FAQ
  Karl's Home Page
KLS²   KLS² Home
   GC on Facebook
Airlines of the World   Airlines of the World
Donate via PayPal


Copyright © 2004-2017, Karl L. Swartz. All rights reserved.
All trademarks mentioned herein belong to their respective owners.

Please see credits for attribution and copyright information.

Karl Swartz <karl@kls2.com>
  Powered by FreeBSD
Valid HTML 4.01!
Labeled with ICRA
hCard Microformat
Geo Microformat